sensor_id;sensor_type;location;lat;lon;timestamp;temperature;humidity
5138;DHT22;53959;53.626;11.410;2022-08-21T00:00:48;16.80;99.90
5138;DHT22;53959;53.626;11.410;2022-08-21T00:03:14;16.80;99.90
5138;DHT22;53959;53.626;11.410;2022-08-21T00:05:46;16.70;99.90
5138;DHT22;53959;53.626;11.410;2022-08-21T00:08:12;16.80;99.90
5138;DHT22;53959;53.626;11.410;2022-08-21T00:10:39;16.70;99.90
5138;DHT22;53959;53.626;11.410;2022-08-21T00:13:06;16.60;99.90
5138;DHT22;53959;53.626;11.410;2022-08-21T00:15:35;16.60;99.90
5138;DHT22;53959;53.626;11.410;2022-08-21T00:18:02;16.60;99.90
5138;DHT22;53959;53.626;11.410;2022-08-21T00:20:29;16.50;99.90
5138;DHT22;53959;53.626;11.410;2022-08-21T00:22:54;16.50;99.90
5138;DHT22;53959;53.626;11.410;2022-08-21T00:25:21;16.60;99.90
5138;DHT22;53959;53.626;11.410;2022-08-21T00:27:47;16.50;99.90
5138;DHT22;53959;53.626;11.410;2022-08-21T00:30:15;16.60;99.90
5138;DHT22;53959;53.626;11.410;2022-08-21T00:32:41;16.60;99.90
5138;DHT22;53959;53.626;11.410;2022-08-21T00:35:10;16.60;99.90
5138;DHT22;53959;53.626;11.410;2022-08-21T00:37:40;16.60;99.90
5138;DHT22;53959;53.626;11.410;2022-08-21T00:40:10;16.60;99.90
5138;DHT22;53959;53.626;11.410;2022-08-21T00:42:37;16.60;99.90
5138;DHT22;53959;53.626;11.410;2022-08-21T00:45:04;16.60;99.90
5138;DHT22;53959;53.626;11.410;2022-08-21T00:47:30;16.60;99.90
5138;DHT22;53959;53.626;11.410;2022-08-21T00:49:55;16.60;99.90
5138;DHT22;53959;53.626;11.410;2022-08-21T00:52:24;16.50;99.90
5138;DHT22;53959;53.626;11.410;2022-08-21T00:54:52;16.60;99.90
5138;DHT22;53959;53.626;11.410;2022-08-21T00:57:22;16.50;99.90
5138;DHT22;53959;53.626;11.410;2022-08-21T00:59:51;16.50;99.90
5138;DHT22;53959;53.626;11.410;2022-08-21T01:02:18;16.50;99.90
5138;DHT22;53959;53.626;11.410;2022-08-21T01:04:45;16.50;99.90
5138;DHT22;53959;53.626;11.410;2022-08-21T01:07:11;16.50;99.90
5138;DHT22;53959;53.626;11.410;2022-08-21T01:09:37;16.40;99.90
5138;DHT22;53959;53.626;11.410;2022-08-21T01:12:04;16.40;99.90
5138;DHT22;53959;53.626;11.410;2022-08-21T01:14:30;16.30;99.90
5138;DHT22;53959;53.626;11.410;2022-08-21T01:16:58;16.20;99.90
5138;DHT22;53959;53.626;11.410;2022-08-21T01:19:25;16.20;99.90
5138;DHT22;53959;53.626;11.410;2022-08-21T01:21:51;16.20;99.90
5138;DHT22;53959;53.626;11.410;2022-08-21T01:24:17;16.20;99.90
5138;DHT22;53959;53.626;11.410;2022-08-21T01:26:44;16.40;99.90
5138;DHT22;53959;53.626;11.410;2022-08-21T01:31:41;16.20;99.90
5138;DHT22;53959;53.626;11.410;2022-08-21T01:34:07;16.20;99.90
5138;DHT22;53959;53.626;11.410;2022-08-21T01:36:33;16.10;99.90
5138;DHT22;53959;53.626;11.410;2022-08-21T01:38:59;16.10;99.90
5138;DHT22;53959;53.626;11.410;2022-08-21T01:41:24;16.00;99.90
5138;DHT22;53959;53.626;11.410;2022-08-21T01:43:50;16.00;99.90
5138;DHT22;53959;53.626;11.410;2022-08-21T01:46:16;16.10;99.90
5138;DHT22;53959;53.626;11.410;2022-08-21T01:48:42;16.20;99.90
5138;DHT22;53959;53.626;11.410;2022-08-21T01:51:08;16.20;99.90
5138;DHT22;53959;53.626;11.410;2022-08-21T01:53:35;16.20;99.90
5138;DHT22;53959;53.626;11.410;2022-08-21T01:56:04;16.00;99.90
5138;DHT22;53959;53.626;11.410;2022-08-21T01:58:30;15.80;99.90
5138;DHT22;53959;53.626;11.410;2022-08-21T02:00:56;15.60;99.90
5138;DHT22;53959;53.626;11.410;2022-08-21T02:03:22;15.60;99.90
5138;DHT22;53959;53.626;11.410;2022-08-21T02:05:47;15.20;99.90
5138;DHT22;53959;53.626;11.410;2022-08-21T02:08:13;15.00;99.90
5138;DHT22;53959;53.626;11.410;2022-08-21T02:10:38;14.90;99.90
5138;DHT22;53959;53.626;11.410;2022-08-21T02:13:04;14.80;99.90
5138;DHT22;53959;53.626;11.410;2022-08-21T02:15:30;14.70;99.90
5138;DHT22;53959;53.626;11.410;2022-08-21T02:17:59;14.60;99.90
5138;DHT22;53959;53.626;11.410;2022-08-21T02:20:31;14.50;99.90
5138;DHT22;53959;53.626;11.410;2022-08-21T02:22:58;14.50;99.90
5138;DHT22;53959;53.626;11.410;2022-08-21T02:25:25;14.60;99.90
5138;DHT22;53959;53.626;11.410;2022-08-21T02:27:51;14.60;99.90
5138;DHT22;53959;53.626;11.410;2022-08-21T02:30:30;14.60;99.90
5138;DHT22;53959;53.626;11.410;2022-08-21T02:32:58;14.50;99.90
5138;DHT22;53959;53.626;11.410;2022-08-21T02:35:24;14.50;99.90
5138;DHT22;53959;53.626;11.410;2022-08-21T02:37:55;14.50;99.90
5138;DHT22;53959;53.626;11.410;2022-08-21T02:40:26;14.40;99.90
5138;DHT22;53959;53.626;11.410;2022-08-21T02:42:52;14.40;99.90
5138;DHT22;53959;53.626;11.410;2022-08-21T02:45:19;14.40;99.90
5138;DHT22;53959;53.626;11.410;2022-08-21T02:47:55;14.30;99.90
5138;DHT22;53959;53.626;11.410;2022-08-21T02:50:24;14.30;99.90
5138;DHT22;53959;53.626;11.410;2022-08-21T02:52:50;14.30;99.90
5138;DHT22;53959;53.626;11.410;2022-08-21T02:55:18;14.20;99.90
5138;DHT22;53959;53.626;11.410;2022-08-21T02:57:45;14.20;99.90
5138;DHT22;53959;53.626;11.410;2022-08-21T03:00:11;14.20;99.90
5138;DHT22;53959;53.626;11.410;2022-08-21T03:02:38;14.20;99.90
5138;DHT22;53959;53.626;11.410;2022-08-21T03:05:05;14.30;99.90
5138;DHT22;53959;53.626;11.410;2022-08-21T03:07:31;14.30;99.90
5138;DHT22;53959;53.626;11.410;2022-08-21T03:09:56;14.20;99.90
5138;DHT22;53959;53.626;11.410;2022-08-21T03:12:23;14.20;99.90
5138;DHT22;53959;53.626;11.410;2022-08-21T03:14:49;14.20;99.90
5138;DHT22;53959;53.626;11.410;2022-08-21T03:17:14;14.30;99.90
5138;DHT22;53959;53.626;11.410;2022-08-21T03:19:40;14.20;99.90
5138;DHT22;53959;53.626;11.410;2022-08-21T03:22:05;14.20;99.90
5138;DHT22;53959;53.626;11.410;2022-08-21T03:24:31;14.20;99.90
5138;DHT22;53959;53.626;11.410;2022-08-21T03:26:56;14.30;99.90
5138;DHT22;53959;53.626;11.410;2022-08-21T03:29:22;14.20;99.90
5138;DHT22;53959;53.626;11.410;2022-08-21T03:31:48;14.20;99.90
5138;DHT22;53959;53.626;11.410;2022-08-21T03:34:13;14.20;99.90
5138;DHT22;53959;53.626;11.410;2022-08-21T03:36:39;14.10;99.90
5138;DHT22;53959;53.626;11.410;2022-08-21T03:39:04;14.20;99.90
5138;DHT22;53959;53.626;11.410;2022-08-21T03:41:30;14.30;99.90
5138;DHT22;53959;53.626;11.410;2022-08-21T03:43:56;14.30;99.90
5138;DHT22;53959;53.626;11.410;2022-08-21T03:46:21;14.20;99.90
5138;DHT22;53959;53.626;11.410;2022-08-21T03:48:47;14.10;99.90
5138;DHT22;53959;53.626;11.410;2022-08-21T03:51:14;14.10;99.90
5138;DHT22;53959;53.626;11.410;2022-08-21T03:53:40;14.10;99.90
5138;DHT22;53959;53.626;11.410;2022-08-21T03:56:05;14.00;99.90
5138;DHT22;53959;53.626;11.410;2022-08-21T03:58:31;14.10;99.90
5138;DHT22;53959;53.626;11.410;2022-08-21T04:00:59;14.10;99.90
5138;DHT22;53959;53.626;11.410;2022-08-21T04:03:26;14.10;99.90
5138;DHT22;53959;53.626;11.410;2022-08-21T04:05:52;14.10;99.90
5138;DHT22;53959;53.626;11.410;2022-08-21T04:08:18;14.10;99.90
5138;DHT22;53959;53.626;11.410;2022-08-21T04:10:48;14.20;99.90
5138;DHT22;53959;53.626;11.410;2022-08-21T04:13:15;14.00;99.90
5138;DHT22;53959;53.626;11.410;2022-08-21T04:15:40;14.10;99.90
5138;DHT22;53959;53.626;11.410;2022-08-21T04:18:07;14.10;99.90
5138;DHT22;53959;53.626;11.410;2022-08-21T04:20:34;13.90;99.90
5138;DHT22;53959;53.626;11.410;2022-08-21T04:23:00;13.90;99.90
5138;DHT22;53959;53.626;11.410;2022-08-21T04:25:26;14.00;99.90
5138;DHT22;53959;53.626;11.410;2022-08-21T04:27:52;14.00;99.90
5138;DHT22;53959;53.626;11.410;2022-08-21T04:30:18;13.90;99.90
5138;DHT22;53959;53.626;11.410;2022-08-21T04:32:45;13.90;99.90
5138;DHT22;53959;53.626;11.410;2022-08-21T04:35:13;13.90;99.90
5138;DHT22;53959;53.626;11.410;2022-08-21T04:37:39;13.90;99.90
5138;DHT22;53959;53.626;11.410;2022-08-21T04:40:06;13.70;99.90
5138;DHT22;53959;53.626;11.410;2022-08-21T04:42:32;13.70;99.90
5138;DHT22;53959;53.626;11.410;2022-08-21T04:44:58;13.80;99.90
5138;DHT22;53959;53.626;11.410;2022-08-21T04:47:24;13.70;99.90
5138;DHT22;53959;53.626;11.410;2022-08-21T04:49:50;13.60;99.90
5138;DHT22;53959;53.626;11.410;2022-08-21T04:52:19;13.70;99.90
5138;DHT22;53959;53.626;11.410;2022-08-21T04:54:46;13.60;99.90
5138;DHT22;53959;53.626;11.410;2022-08-21T04:57:15;13.60;99.90
5138;DHT22;53959;53.626;11.410;2022-08-21T04:59:46;13.60;99.90
5138;DHT22;53959;53.626;11.410;2022-08-21T05:02:13;13.60;99.90
5138;DHT22;53959;53.626;11.410;2022-08-21T05:04:44;13.70;99.90
5138;DHT22;53959;53.626;11.410;2022-08-21T05:07:20;13.60;99.90
5138;DHT22;53959;53.626;11.410;2022-08-21T05:09:47;13.70;99.90
5138;DHT22;53959;53.626;11.410;2022-08-21T05:12:13;13.80;99.90
5138;DHT22;53959;53.626;11.410;2022-08-21T05:14:39;13.80;99.90
5138;DHT22;53959;53.626;11.410;2022-08-21T05:17:04;13.80;99.90
5138;DHT22;53959;53.626;11.410;2022-08-21T05:19:30;13.80;99.90
5138;DHT22;53959;53.626;11.410;2022-08-21T05:21:56;13.80;99.90
5138;DHT22;53959;53.626;11.410;2022-08-21T05:24:22;13.70;99.90
5138;DHT22;53959;53.626;11.410;2022-08-21T05:26:48;13.70;99.90
5138;DHT22;53959;53.626;11.410;2022-08-21T05:29:15;13.80;99.90
5138;DHT22;53959;53.626;11.410;2022-08-21T05:31:41;13.90;99.90
5138;DHT22;53959;53.626;11.410;2022-08-21T05:34:07;14.00;99.90
5138;DHT22;53959;53.626;11.410;2022-08-21T05:36:33;14.00;99.90
5138;DHT22;53959;53.626;11.410;2022-08-21T05:38:58;14.10;99.90
5138;DHT22;53959;53.626;11.410;2022-08-21T05:41:24;14.20;99.90
5138;DHT22;53959;53.626;11.410;2022-08-21T05:43:49;14.30;99.90
5138;DHT22;53959;53.626;11.410;2022-08-21T05:46:16;14.30;99.90
5138;DHT22;53959;53.626;11.410;2022-08-21T05:48:41;14.40;99.90
5138;DHT22;53959;53.626;11.410;2022-08-21T05:51:14;14.50;99.90
5138;DHT22;53959;53.626;11.410;2022-08-21T05:53:41;14.50;99.90
5138;DHT22;53959;53.626;11.410;2022-08-21T05:56:08;14.70;99.90
5138;DHT22;53959;53.626;11.410;2022-08-21T05:58:34;14.80;99.90
5138;DHT22;53959;53.626;11.410;2022-08-21T06:01:00;14.90;99.90
5138;DHT22;53959;53.626;11.410;2022-08-21T06:03:35;14.90;99.90
5138;DHT22;53959;53.626;11.410;2022-08-21T06:06:01;15.00;99.90
5138;DHT22;53959;53.626;11.410;2022-08-21T06:08:28;15.10;99.90
5138;DHT22;53959;53.626;11.410;2022-08-21T06:10:57;15.10;99.90
5138;DHT22;53959;53.626;11.410;2022-08-21T06:13:24;15.20;99.90
5138;DHT22;53959;53.626;11.410;2022-08-21T06:15:50;15.20;99.90
5138;DHT22;53959;53.626;11.410;2022-08-21T06:18:25;15.30;99.90
5138;DHT22;53959;53.626;11.410;2022-08-21T06:20:50;15.40;99.90
5138;DHT22;53959;53.626;11.410;2022-08-21T06:23:16;15.50;99.90
5138;DHT22;53959;53.626;11.410;2022-08-21T06:25:41;15.50;99.90
5138;DHT22;53959;53.626;11.410;2022-08-21T06:28:09;15.70;99.90
5138;DHT22;53959;53.626;11.410;2022-08-21T06:30:36;15.70;99.90
5138;DHT22;53959;53.626;11.410;2022-08-21T06:33:02;15.90;99.90
5138;DHT22;53959;53.626;11.410;2022-08-21T06:35:28;16.00;99.90
5138;DHT22;53959;53.626;11.410;2022-08-21T06:37:55;16.00;99.90
5138;DHT22;53959;53.626;11.410;2022-08-21T06:40:21;16.20;99.90
5138;DHT22;53959;53.626;11.410;2022-08-21T06:42:47;16.30;99.90
5138;DHT22;53959;53.626;11.410;2022-08-21T06:45:12;16.40;99.90
5138;DHT22;53959;53.626;11.410;2022-08-21T06:47:38;16.50;99.90
5138;DHT22;53959;53.626;11.410;2022-08-21T06:50:04;16.60;99.90
5138;DHT22;53959;53.626;11.410;2022-08-21T06:52:33;16.70;99.90
5138;DHT22;53959;53.626;11.410;2022-08-21T06:54:58;16.90;99.90
5138;DHT22;53959;53.626;11.410;2022-08-21T06:57:24;17.00;99.90
5138;DHT22;53959;53.626;11.410;2022-08-21T06:59:50;17.10;99.90
5138;DHT22;53959;53.626;11.410;2022-08-21T07:02:16;17.20;99.90
5138;DHT22;53959;53.626;11.410;2022-08-21T07:04:42;17.30;99.90
5138;DHT22;53959;53.626;11.410;2022-08-21T07:07:08;17.30;99.90
5138;DHT22;53959;53.626;11.410;2022-08-21T07:09:33;17.40;99.90
5138;DHT22;53959;53.626;11.410;2022-08-21T07:11:59;17.50;99.90
5138;DHT22;53959;53.626;11.410;2022-08-21T07:14:25;17.70;99.90
5138;DHT22;53959;53.626;11.410;2022-08-21T07:16:51;18.00;99.90
5138;DHT22;53959;53.626;11.410;2022-08-21T07:19:17;18.10;99.90
5138;DHT22;53959;53.626;11.410;2022-08-21T07:21:43;18.30;99.90
5138;DHT22;53959;53.626;11.410;2022-08-21T07:24:09;18.40;99.90
5138;DHT22;53959;53.626;11.410;2022-08-21T07:26:34;18.40;99.90
5138;DHT22;53959;53.626;11.410;2022-08-21T07:29:00;18.40;99.90
5138;DHT22;53959;53.626;11.410;2022-08-21T07:31:27;18.50;99.90
5138;DHT22;53959;53.626;11.410;2022-08-21T07:33:53;18.70;99.90
5138;DHT22;53959;53.626;11.410;2022-08-21T07:36:19;18.80;8.60
5138;DHT22;53959;53.626;11.410;2022-08-21T07:38:45;19.10;1.00
5138;DHT22;53959;53.626;11.410;2022-08-21T07:41:16;19.30;99.90
5138;DHT22;53959;53.626;11.410;2022-08-21T07:43:43;19.60;1.00
5138;DHT22;53959;53.626;11.410;2022-08-21T07:46:09;19.80;99.90
5138;DHT22;53959;53.626;11.410;2022-08-21T07:48:35;19.80;99.90
5138;DHT22;53959;53.626;11.410;2022-08-21T07:51:04;20.40;99.90
5138;DHT22;53959;53.626;11.410;2022-08-21T07:53:30;20.40;1.00
5138;DHT22;53959;53.626;11.410;2022-08-21T07:55:59;20.90;99.90
5138;DHT22;53959;53.626;11.410;2022-08-21T07:58:25;21.00;99.90
5138;DHT22;53959;53.626;11.410;2022-08-21T08:00:50;21.20;1.00
5138;DHT22;53959;53.626;11.410;2022-08-21T08:03:16;21.30;1.00
5138;DHT22;53959;53.626;11.410;2022-08-21T08:05:41;21.30;99.90
5138;DHT22;53959;53.626;11.410;2022-08-21T08:08:07;21.70;99.90
5138;DHT22;53959;53.626;11.410;2022-08-21T08:10:33;21.80;99.90
5138;DHT22;53959;53.626;11.410;2022-08-21T08:12:58;22.10;99.90
5138;DHT22;53959;53.626;11.410;2022-08-21T08:15:26;22.10;99.90
5138;DHT22;53959;53.626;11.410;2022-08-21T08:17:52;22.20;1.00
5138;DHT22;53959;53.626;11.410;2022-08-21T08:20:20;22.50;1.00
5138;DHT22;53959;53.626;11.410;2022-08-21T08:22:46;22.60;99.90
5138;DHT22;53959;53.626;11.410;2022-08-21T08:25:13;22.80;99.90
5138;DHT22;53959;53.626;11.410;2022-08-21T08:27:39;23.10;99.90
5138;DHT22;53959;53.626;11.410;2022-08-21T08:30:06;22.60;99.90
5138;DHT22;53959;53.626;11.410;2022-08-21T08:32:32;22.00;99.80
5138;DHT22;53959;53.626;11.410;2022-08-21T08:34:58;22.60;38.70
5138;DHT22;53959;53.626;11.410;2022-08-21T08:37:24;22.70;48.30
5138;DHT22;53959;53.626;11.410;2022-08-21T08:39:50;22.90;11.60
5138;DHT22;53959;53.626;11.410;2022-08-21T08:45:01;23.60;1.00
5138;DHT22;53959;53.626;11.410;2022-08-21T08:47:28;23.20;1.00
5138;DHT22;53959;53.626;11.410;2022-08-21T08:50:02;22.70;1.00
5138;DHT22;53959;53.626;11.410;2022-08-21T08:52:31;23.40;1.00
5138;DHT22;53959;53.626;11.410;2022-08-21T08:55:05;24.20;1.00
5138;DHT22;53959;53.626;11.410;2022-08-21T08:57:31;24.90;1.00
5138;DHT22;53959;53.626;11.410;2022-08-21T09:00:01;23.70;1.00
5138;DHT22;53959;53.626;11.410;2022-08-21T09:02:28;23.80;1.00
5138;DHT22;53959;53.626;11.410;2022-08-21T09:04:54;23.20;1.00
5138;DHT22;53959;53.626;11.410;2022-08-21T09:10:21;23.30;1.00
5138;DHT22;53959;53.626;11.410;2022-08-21T09:21:16;23.80;1.00
5138;DHT22;53959;53.626;11.410;2022-08-21T09:24:20;23.70;1.00
5138;DHT22;53959;53.626;11.410;2022-08-21T09:27:10;23.10;1.00
5138;DHT22;53959;53.626;11.410;2022-08-21T09:29:40;23.60;1.00
5138;DHT22;53959;53.626;11.410;2022-08-21T09:32:24;23.80;1.00
5138;DHT22;53959;53.626;11.410;2022-08-21T09:35:17;23.30;1.00
5138;DHT22;53959;53.626;11.410;2022-08-21T09:37:58;23.70;1.00
5138;DHT22;53959;53.626;11.410;2022-08-21T09:40:43;23.90;1.00
5138;DHT22;53959;53.626;11.410;2022-08-21T09:45:38;23.70;1.00
5138;DHT22;53959;53.626;11.410;2022-08-21T09:48:12;23.70;1.00
5138;DHT22;53959;53.626;11.410;2022-08-21T09:50:39;23.50;1.00
5138;DHT22;53959;53.626;11.410;2022-08-21T09:53:13;24.00;1.00
5138;DHT22;53959;53.626;11.410;2022-08-21T09:55:49;23.60;1.00
5138;DHT22;53959;53.626;11.410;2022-08-21T09:58:37;23.80;1.00
5138;DHT22;53959;53.626;11.410;2022-08-21T10:01:04;23.10;1.00
5138;DHT22;53959;53.626;11.410;2022-08-21T10:03:31;22.80;1.00
5138;DHT22;53959;53.626;11.410;2022-08-21T10:05:57;23.00;1.00
5138;DHT22;53959;53.626;11.410;2022-08-21T10:08:25;22.50;1.00
5138;DHT22;53959;53.626;11.410;2022-08-21T10:11:04;22.30;1.00
5138;DHT22;53959;53.626;11.410;2022-08-21T10:14:14;22.10;1.00
5138;DHT22;53959;53.626;11.410;2022-08-21T10:22:35;22.40;1.00
5138;DHT22;53959;53.626;11.410;2022-08-21T10:25:23;22.90;1.00
5138;DHT22;53959;53.626;11.410;2022-08-21T10:30:27;22.90;1.00
5138;DHT22;53959;53.626;11.410;2022-08-21T10:33:08;23.10;1.00
5138;DHT22;53959;53.626;11.410;2022-08-21T10:41:14;23.20;1.00
5138;DHT22;53959;53.626;11.410;2022-08-21T10:52:45;23.10;1.00
5138;DHT22;53959;53.626;11.410;2022-08-21T10:57:50;23.70;1.00
5138;DHT22;53959;53.626;11.410;2022-08-21T11:00:21;23.90;1.00
5138;DHT22;53959;53.626;11.410;2022-08-21T11:03:12;23.30;1.00
5138;DHT22;53959;53.626;11.410;2022-08-21T11:05:52;23.50;1.00
5138;DHT22;53959;53.626;11.410;2022-08-21T11:08:33;23.50;1.00
5138;DHT22;53959;53.626;11.410;2022-08-21T11:11:16;23.70;1.00
5138;DHT22;53959;53.626;11.410;2022-08-21T11:13:54;23.80;1.00
5138;DHT22;53959;53.626;11.410;2022-08-21T11:16:23;23.60;1.00
5138;DHT22;53959;53.626;11.410;2022-08-21T11:19:13;23.60;1.00
5138;DHT22;53959;53.626;11.410;2022-08-21T11:21:50;23.60;1.00
5138;DHT22;53959;53.626;11.410;2022-08-21T11:24:40;23.80;1.00
5138;DHT22;53959;53.626;11.410;2022-08-21T11:29:48;23.60;1.00
5138;DHT22;53959;53.626;11.410;2022-08-21T11:35:24;23.50;1.00
5138;DHT22;53959;53.626;11.410;2022-08-21T11:43:46;24.50;1.00
5138;DHT22;53959;53.626;11.410;2022-08-21T11:52:07;24.10;1.00
5138;DHT22;53959;53.626;11.410;2022-08-21T11:54:39;24.30;1.00
5138;DHT22;53959;53.626;11.410;2022-08-21T11:57:40;24.30;1.00
5138;DHT22;53959;53.626;11.410;2022-08-21T12:00:34;24.50;1.00
5138;DHT22;53959;53.626;11.410;2022-08-21T12:03:13;24.60;1.00
5138;DHT22;53959;53.626;11.410;2022-08-21T12:05:42;25.00;1.00
5138;DHT22;53959;53.626;11.410;2022-08-21T12:11:02;24.20;1.00
5138;DHT22;53959;53.626;11.410;2022-08-21T12:13:31;24.60;1.00
5138;DHT22;53959;53.626;11.410;2022-08-21T12:16:10;24.90;1.00
5138;DHT22;53959;53.626;11.410;2022-08-21T12:18:37;24.50;1.00
5138;DHT22;53959;53.626;11.410;2022-08-21T12:23:57;24.50;1.00
5138;DHT22;53959;53.626;11.410;2022-08-21T12:26:34;24.90;1.00
5138;DHT22;53959;53.626;11.410;2022-08-21T12:31:58;25.40;1.00
5138;DHT22;53959;53.626;11.410;2022-08-21T12:34:35;25.00;1.00
5138;DHT22;53959;53.626;11.410;2022-08-21T12:37:14;24.60;1.00
5138;DHT22;53959;53.626;11.410;2022-08-21T12:39:44;24.90;1.00
5138;DHT22;53959;53.626;11.410;2022-08-21T12:42:17;24.30;1.00
5138;DHT22;53959;53.626;11.410;2022-08-21T12:44:48;25.00;1.00
5138;DHT22;53959;53.626;11.410;2022-08-21T12:47:33;25.30;1.00
5138;DHT22;53959;53.626;11.410;2022-08-21T12:50:05;25.60;1.00
5138;DHT22;53959;53.626;11.410;2022-08-21T12:52:45;25.80;1.00
5138;DHT22;53959;53.626;11.410;2022-08-21T12:55:15;25.90;1.00
5138;DHT22;53959;53.626;11.410;2022-08-21T12:57:42;25.70;1.00
5138;DHT22;53959;53.626;11.410;2022-08-21T13:00:11;25.20;1.00
5138;DHT22;53959;53.626;11.410;2022-08-21T13:02:43;25.30;1.00
5138;DHT22;53959;53.626;11.410;2022-08-21T13:05:14;25.40;1.00
5138;DHT22;53959;53.626;11.410;2022-08-21T13:07:45;25.10;1.00
5138;DHT22;53959;53.626;11.410;2022-08-21T13:10:22;24.70;1.00
5138;DHT22;53959;53.626;11.410;2022-08-21T13:12:49;25.40;1.00
5138;DHT22;53959;53.626;11.410;2022-08-21T13:15:23;25.20;1.00
5138;DHT22;53959;53.626;11.410;2022-08-21T13:17:50;24.60;1.00
5138;DHT22;53959;53.626;11.410;2022-08-21T13:20:25;24.60;1.00
5138;DHT22;53959;53.626;11.410;2022-08-21T13:22:52;25.20;1.00
5138;DHT22;53959;53.626;11.410;2022-08-21T13:25:21;24.80;1.00
5138;DHT22;53959;53.626;11.410;2022-08-21T13:28:00;24.50;1.00
5138;DHT22;53959;53.626;11.410;2022-08-21T13:30:26;24.70;1.00
5138;DHT22;53959;53.626;11.410;2022-08-21T13:32:56;24.90;1.00
5138;DHT22;53959;53.626;11.410;2022-08-21T13:35:27;24.50;1.00
5138;DHT22;53959;53.626;11.410;2022-08-21T13:37:56;24.50;1.00
5138;DHT22;53959;53.626;11.410;2022-08-21T13:40:29;25.10;1.00
5138;DHT22;53959;53.626;11.410;2022-08-21T13:42:56;25.10;1.00
5138;DHT22;53959;53.626;11.410;2022-08-21T13:45:31;25.00;1.00
5138;DHT22;53959;53.626;11.410;2022-08-21T13:47:57;24.60;1.00
5138;DHT22;53959;53.626;11.410;2022-08-21T13:50:25;24.30;1.00
5138;DHT22;53959;53.626;11.410;2022-08-21T13:53:03;24.00;1.00
5138;DHT22;53959;53.626;11.410;2022-08-21T13:55:41;24.40;1.00
5138;DHT22;53959;53.626;11.410;2022-08-21T13:58:08;24.70;1.00
5138;DHT22;53959;53.626;11.410;2022-08-21T14:00:51;25.10;1.00
5138;DHT22;53959;53.626;11.410;2022-08-21T14:03:44;25.00;1.00
5138;DHT22;53959;53.626;11.410;2022-08-21T14:06:18;24.90;1.00
5138;DHT22;53959;53.626;11.410;2022-08-21T14:08:57;24.80;1.00
5138;DHT22;53959;53.626;11.410;2022-08-21T14:11:26;24.50;1.00
5138;DHT22;53959;53.626;11.410;2022-08-21T14:16:43;24.80;1.00
5138;DHT22;53959;53.626;11.410;2022-08-21T14:19:11;24.90;1.00
5138;DHT22;53959;53.626;11.410;2022-08-21T14:21:44;24.90;1.00
5138;DHT22;53959;53.626;11.410;2022-08-21T14:27:07;25.10;1.00
5138;DHT22;53959;53.626;11.410;2022-08-21T14:29:38;25.20;1.00
5138;DHT22;53959;53.626;11.410;2022-08-21T14:32:19;25.30;1.00
5138;DHT22;53959;53.626;11.410;2022-08-21T14:34:45;25.30;1.00
5138;DHT22;53959;53.626;11.410;2022-08-21T14:37:10;25.00;1.00
5138;DHT22;53959;53.626;11.410;2022-08-21T14:39:36;25.40;1.00
5138;DHT22;53959;53.626;11.410;2022-08-21T14:42:02;25.60;1.00
5138;DHT22;53959;53.626;11.410;2022-08-21T14:44:27;25.40;1.00
5138;DHT22;53959;53.626;11.410;2022-08-21T14:46:54;25.60;1.00
5138;DHT22;53959;53.626;11.410;2022-08-21T14:49:20;25.30;1.00
5138;DHT22;53959;53.626;11.410;2022-08-21T14:51:45;25.10;99.90
5138;DHT22;53959;53.626;11.410;2022-08-21T14:54:11;24.90;1.00
5138;DHT22;53959;53.626;11.410;2022-08-21T14:56:36;25.10;1.00
5138;DHT22;53959;53.626;11.410;2022-08-21T14:59:05;25.00;99.90
5138;DHT22;53959;53.626;11.410;2022-08-21T15:01:36;24.90;99.90
5138;DHT22;53959;53.626;11.410;2022-08-21T15:04:02;24.90;99.90
5138;DHT22;53959;53.626;11.410;2022-08-21T15:06:28;24.70;99.90
5138;DHT22;53959;53.626;11.410;2022-08-21T15:08:53;24.80;99.90
5138;DHT22;53959;53.626;11.410;2022-08-21T15:11:21;25.10;99.90
5138;DHT22;53959;53.626;11.410;2022-08-21T15:13:56;25.50;99.90
5138;DHT22;53959;53.626;11.410;2022-08-21T15:16:23;25.20;99.90
5138;DHT22;53959;53.626;11.410;2022-08-21T15:18:49;25.00;99.90
5138;DHT22;53959;53.626;11.410;2022-08-21T15:21:15;24.80;99.90
5138;DHT22;53959;53.626;11.410;2022-08-21T15:23:40;25.00;99.90
5138;DHT22;53959;53.626;11.410;2022-08-21T15:26:06;24.80;99.90
5138;DHT22;53959;53.626;11.410;2022-08-21T15:28:34;24.80;99.90
5138;DHT22;53959;53.626;11.410;2022-08-21T15:31:00;24.60;99.90
5138;DHT22;53959;53.626;11.410;2022-08-21T15:33:26;24.50;99.90
5138;DHT22;53959;53.626;11.410;2022-08-21T15:35:52;24.70;99.90
5138;DHT22;53959;53.626;11.410;2022-08-21T15:38:17;24.80;99.90
5138;DHT22;53959;53.626;11.410;2022-08-21T15:40:43;24.70;99.90
5138;DHT22;53959;53.626;11.410;2022-08-21T15:43:22;24.80;99.90
5138;DHT22;53959;53.626;11.410;2022-08-21T15:45:49;24.60;99.90
5138;DHT22;53959;53.626;11.410;2022-08-21T15:48:15;24.50;99.90
5138;DHT22;53959;53.626;11.410;2022-08-21T15:50:40;24.40;99.90
5138;DHT22;53959;53.626;11.410;2022-08-21T15:53:06;24.60;99.90
5138;DHT22;53959;53.626;11.410;2022-08-21T15:55:33;24.60;99.90
5138;DHT22;53959;53.626;11.410;2022-08-21T15:57:59;24.80;99.90
5138;DHT22;53959;53.626;11.410;2022-08-21T16:00:25;25.00;99.90
5138;DHT22;53959;53.626;11.410;2022-08-21T16:02:53;25.00;99.90
5138;DHT22;53959;53.626;11.410;2022-08-21T16:05:21;25.10;99.90
5138;DHT22;53959;53.626;11.410;2022-08-21T16:07:48;25.00;99.90
5138;DHT22;53959;53.626;11.410;2022-08-21T16:10:16;25.20;99.90
5138;DHT22;53959;53.626;11.410;2022-08-21T16:12:47;25.10;99.90
5138;DHT22;53959;53.626;11.410;2022-08-21T16:15:15;24.90;99.90
5138;DHT22;53959;53.626;11.410;2022-08-21T16:17:43;24.90;99.90
5138;DHT22;53959;53.626;11.410;2022-08-21T16:20:15;24.80;99.90
5138;DHT22;53959;53.626;11.410;2022-08-21T16:22:41;24.80;99.90
5138;DHT22;53959;53.626;11.410;2022-08-21T16:25:06;24.70;99.90
5138;DHT22;53959;53.626;11.410;2022-08-21T16:27:33;24.70;99.90
5138;DHT22;53959;53.626;11.410;2022-08-21T16:29:59;24.70;99.90
5138;DHT22;53959;53.626;11.410;2022-08-21T16:32:25;24.70;99.90
5138;DHT22;53959;53.626;11.410;2022-08-21T16:34:51;24.60;99.90
5138;DHT22;53959;53.626;11.410;2022-08-21T16:37:17;24.50;99.90
5138;DHT22;53959;53.626;11.410;2022-08-21T16:39:43;24.40;99.90
5138;DHT22;53959;53.626;11.410;2022-08-21T16:42:13;24.40;99.90
5138;DHT22;53959;53.626;11.410;2022-08-21T16:44:41;24.30;99.90
5138;DHT22;53959;53.626;11.410;2022-08-21T16:47:07;24.20;99.90
5138;DHT22;53959;53.626;11.410;2022-08-21T16:49:33;24.20;99.90
5138;DHT22;53959;53.626;11.410;2022-08-21T16:51:58;24.20;99.90
5138;DHT22;53959;53.626;11.410;2022-08-21T16:54:24;24.20;99.90
5138;DHT22;53959;53.626;11.410;2022-08-21T16:56:50;24.20;99.90
5138;DHT22;53959;53.626;11.410;2022-08-21T16:59:16;24.10;99.90
5138;DHT22;53959;53.626;11.410;2022-08-21T17:01:42;24.00;99.90